sensor_id;sensor_type;location;lat;lon;timestamp;pressure;altitude;pressure_sealevel;temperature;humidity
33155;BME280;19511;42.682;23.332;2023-04-01T00:04:52;94266.91;;;10.69;100.00
33155;BME280;19511;42.682;23.332;2023-04-01T00:07:18;94277.09;;;10.72;100.00
33155;BME280;19511;42.682;23.332;2023-04-01T00:09:47;94258.63;;;10.36;100.00
33155;BME280;19511;42.682;23.332;2023-04-01T00:12:16;94188.06;;;9.95;100.00
33155;BME280;19511;42.682;23.332;2023-04-01T00:14:42;94225.41;;;10.20;100.00
33155;BME280;19511;42.682;23.332;2023-04-01T00:17:08;94273.56;;;10.55;100.00
33155;BME280;19511;42.682;23.332;2023-04-01T00:19:36;94281.78;;;10.42;100.00
33155;BME280;19511;42.682;23.332;2023-04-01T00:22:05;94280.72;;;10.36;100.00
33155;BME280;19511;42.682;23.332;2023-04-01T00:24:34;94284.72;;;10.15;100.00
33155;BME280;19511;42.682;23.332;2023-04-01T00:27:01;94272.38;;;10.20;100.00
33155;BME280;19511;42.682;23.332;2023-04-01T00:29:27;94286.13;;;10.23;100.00
33155;BME280;19511;42.682;23.332;2023-04-01T00:31:55;94277.00;;;10.06;100.00
33155;BME280;19511;42.682;23.332;2023-04-01T00:34:27;94264.03;;;9.87;100.00
33155;BME280;19511;42.682;23.332;2023-04-01T00:36:53;94273.38;;;9.93;100.00
33155;BME280;19511;42.682;23.332;2023-04-01T00:39:21;94256.88;;;9.69;100.00
33155;BME280;19511;42.682;23.332;2023-04-01T00:41:47;94271.94;;;9.85;100.00
33155;BME280;19511;42.682;23.332;2023-04-01T00:44:20;94253.78;;;9.67;100.00
33155;BME280;19511;42.682;23.332;2023-04-01T00:46:46;94264.78;;;9.87;100.00
33155;BME280;19511;42.682;23.332;2023-04-01T00:49:15;94252.63;;;9.64;100.00
33155;BME280;19511;42.682;23.332;2023-04-01T00:51:44;94211.97;;;9.48;100.00
33155;BME280;19511;42.682;23.332;2023-04-01T00:54:12;94232.19;;;9.62;100.00
33155;BME280;19511;42.682;23.332;2023-04-01T00:56:44;94243.91;;;9.66;100.00
33155;BME280;19511;42.682;23.332;2023-04-01T00:59:19;94243.00;;;9.73;100.00
33155;BME280;19511;42.682;23.332;2023-04-01T01:01:46;94233.34;;;9.81;100.00
33155;BME280;19511;42.682;23.332;2023-04-01T01:21:11;94201.47;;;9.60;100.00
33155;BME280;19511;42.682;23.332;2023-04-01T01:26:53;94184.59;;;9.74;100.00
33155;BME280;19511;42.682;23.332;2023-04-01T01:32:10;94195.66;;;9.91;100.00
33155;BME280;19511;42.682;23.332;2023-04-01T01:37:18;94184.09;;;9.96;100.00
33155;BME280;19511;42.682;23.332;2023-04-01T01:39:51;94174.72;;;10.10;100.00
33155;BME280;19511;42.682;23.332;2023-04-01T01:42:25;94146.31;;;9.93;100.00
33155;BME280;19511;42.682;23.332;2023-04-01T01:44:53;94110.72;;;9.78;100.00
33155;BME280;19511;42.682;23.332;2023-04-01T01:47:24;94121.00;;;9.78;100.00
33155;BME280;19511;42.682;23.332;2023-04-01T01:49:51;94127.97;;;9.83;100.00
33155;BME280;19511;42.682;23.332;2023-04-01T01:52:22;94083.09;;;9.62;100.00
33155;BME280;19511;42.682;23.332;2023-04-01T01:54:53;94156.41;;;10.16;100.00
33155;BME280;19511;42.682;23.332;2023-04-01T01:57:28;94151.63;;;10.33;100.00
33155;BME280;19511;42.682;23.332;2023-04-01T02:00:02;94172.13;;;10.36;100.00
33155;BME280;19511;42.682;23.332;2023-04-01T02:02:32;94151.47;;;10.24;100.00
33155;BME280;19511;42.682;23.332;2023-04-01T02:04:58;94150.09;;;10.49;100.00
33155;BME280;19511;42.682;23.332;2023-04-01T02:07:28;94150.72;;;10.56;100.00
33155;BME280;19511;42.682;23.332;2023-04-01T02:10:00;94140.34;;;10.44;100.00
33155;BME280;19511;42.682;23.332;2023-04-01T02:12:26;94118.81;;;10.52;100.00
33155;BME280;19511;42.682;23.332;2023-04-01T02:15:09;94072.56;;;10.06;100.00
33155;BME280;19511;42.682;23.332;2023-04-01T02:17:43;94139.97;;;10.58;100.00
33155;BME280;19511;42.682;23.332;2023-04-01T02:20:19;94140.28;;;10.48;100.00
33155;BME280;19511;42.682;23.332;2023-04-01T02:22:51;94112.72;;;10.27;100.00
33155;BME280;19511;42.682;23.332;2023-04-01T02:25:26;94124.31;;;10.39;100.00
33155;BME280;19511;42.682;23.332;2023-04-01T02:27:54;94152.69;;;10.23;100.00
33155;BME280;19511;42.682;23.332;2023-04-01T02:30:25;94137.75;;;10.20;100.00
33155;BME280;19511;42.682;23.332;2023-04-01T02:32:52;94134.63;;;10.35;100.00
33155;BME280;19511;42.682;23.332;2023-04-01T02:35:33;94139.22;;;10.25;100.00
33155;BME280;19511;42.682;23.332;2023-04-01T02:38:02;94143.28;;;10.37;100.00
33155;BME280;19511;42.682;23.332;2023-04-01T02:40:28;94150.59;;;10.27;100.00
33155;BME280;19511;42.682;23.332;2023-04-01T02:42:53;94143.44;;;10.29;100.00
33155;BME280;19511;42.682;23.332;2023-04-01T02:45:21;94155.88;;;10.21;100.00
33155;BME280;19511;42.682;23.332;2023-04-01T02:47:53;94141.63;;;10.23;100.00
33155;BME280;19511;42.682;23.332;2023-04-01T02:50:27;94147.63;;;10.38;100.00
33155;BME280;19511;42.682;23.332;2023-04-01T02:52:52;94163.84;;;10.36;100.00
33155;BME280;19511;42.682;23.332;2023-04-01T02:55:18;94151.03;;;10.25;100.00
33155;BME280;19511;42.682;23.332;2023-04-01T02:57:43;94174.06;;;10.39;100.00
33155;BME280;19511;42.682;23.332;2023-04-01T03:00:09;94179.91;;;10.41;100.00
33155;BME280;19511;42.682;23.332;2023-04-01T03:02:38;94170.56;;;10.35;100.00
33155;BME280;19511;42.682;23.332;2023-04-01T03:05:04;94168.31;;;10.29;100.00
33155;BME280;19511;42.682;23.332;2023-04-01T03:07:33;94181.22;;;10.53;100.00
33155;BME280;19511;42.682;23.332;2023-04-01T03:10:02;94165.81;;;10.35;100.00
33155;BME280;19511;42.682;23.332;2023-04-01T03:12:32;94192.78;;;10.31;100.00
33155;BME280;19511;42.682;23.332;2023-04-01T03:15:03;94190.88;;;10.44;100.00
33155;BME280;19511;42.682;23.332;2023-04-01T03:17:40;94176.50;;;10.17;100.00
33155;BME280;19511;42.682;23.332;2023-04-01T03:20:09;94185.88;;;10.39;100.00
33155;BME280;19511;42.682;23.332;2023-04-01T03:22:36;94116.78;;;9.90;100.00
33155;BME280;19511;42.682;23.332;2023-04-01T03:25:03;94196.94;;;10.39;100.00
33155;BME280;19511;42.682;23.332;2023-04-01T03:27:29;94194.84;;;10.43;100.00
33155;BME280;19511;42.682;23.332;2023-04-01T03:29:54;94192.78;;;10.31;100.00
33155;BME280;19511;42.682;23.332;2023-04-01T03:32:20;94195.66;;;10.44;100.00
33155;BME280;19511;42.682;23.332;2023-04-01T03:34:45;94105.56;;;9.80;100.00
33155;BME280;19511;42.682;23.332;2023-04-01T03:37:10;94193.44;;;10.35;100.00
33155;BME280;19511;42.682;23.332;2023-04-01T03:39:38;94154.41;;;10.17;100.00
33155;BME280;19511;42.682;23.332;2023-04-01T03:42:04;94132.66;;;10.02;100.00
33155;BME280;19511;42.682;23.332;2023-04-01T03:44:36;94169.78;;;10.34;100.00
33155;BME280;19511;42.682;23.332;2023-04-01T03:47:01;94156.41;;;10.49;100.00
33155;BME280;19511;42.682;23.332;2023-04-01T03:49:27;94145.97;;;10.40;100.00
33155;BME280;19511;42.682;23.332;2023-04-01T03:51:52;94132.75;;;10.15;100.00
33155;BME280;19511;42.682;23.332;2023-04-01T03:54:18;94122.38;;;9.86;100.00
33155;BME280;19511;42.682;23.332;2023-04-01T03:56:45;94100.13;;;9.77;100.00
33155;BME280;19511;42.682;23.332;2023-04-01T03:59:11;94108.94;;;9.88;100.00
33155;BME280;19511;42.682;23.332;2023-04-01T04:01:36;94037.56;;;9.54;100.00
33155;BME280;19511;42.682;23.332;2023-04-01T04:04:02;94039.50;;;9.37;100.00
33155;BME280;19511;42.682;23.332;2023-04-01T04:06:27;94087.44;;;9.79;100.00
33155;BME280;19511;42.682;23.332;2023-04-01T04:08:53;94067.13;;;9.70;100.00
33155;BME280;19511;42.682;23.332;2023-04-01T04:11:22;94078.28;;;9.83;100.00
33155;BME280;19511;42.682;23.332;2023-04-01T04:13:48;93971.13;;;9.28;100.00
33155;BME280;19511;42.682;23.332;2023-04-01T04:16:14;94042.56;;;9.75;100.00
33155;BME280;19511;42.682;23.332;2023-04-01T04:18:40;94061.19;;;9.88;100.00
33155;BME280;19511;42.682;23.332;2023-04-01T04:21:15;94064.72;;;9.88;100.00
33155;BME280;19511;42.682;23.332;2023-04-01T04:23:41;94056.81;;;9.74;100.00
33155;BME280;19511;42.682;23.332;2023-04-01T04:26:09;93969.41;;;9.18;100.00
33155;BME280;19511;42.682;23.332;2023-04-01T04:28:34;94046.25;;;9.85;100.00
33155;BME280;19511;42.682;23.332;2023-04-01T04:31:01;93999.25;;;9.72;100.00
33155;BME280;19511;42.682;23.332;2023-04-01T04:33:27;94038.91;;;9.95;100.00
33155;BME280;19511;42.682;23.332;2023-04-01T04:35:55;93944.06;;;9.39;100.00
33155;BME280;19511;42.682;23.332;2023-04-01T04:38:21;94030.63;;;9.95;100.00
33155;BME280;19511;42.682;23.332;2023-04-01T04:40:50;94021.66;;;9.91;100.00
33155;BME280;19511;42.682;23.332;2023-04-01T04:43:16;93944.66;;;9.47;100.00
33155;BME280;19511;42.682;23.332;2023-04-01T04:45:42;94015.03;;;9.88;100.00
33155;BME280;19511;42.682;23.332;2023-04-01T04:48:09;94033.44;;;10.08;100.00
33155;BME280;19511;42.682;23.332;2023-04-01T04:50:34;94016.78;;;10.11;100.00
33155;BME280;19511;42.682;23.332;2023-04-01T04:53:00;93943.16;;;9.75;100.00
33155;BME280;19511;42.682;23.332;2023-04-01T04:55:28;94007.19;;;10.16;100.00
33155;BME280;19511;42.682;23.332;2023-04-01T04:57:54;93986.06;;;10.09;100.00
33155;BME280;19511;42.682;23.332;2023-04-01T05:00:19;93997.97;;;10.06;100.00
33155;BME280;19511;42.682;23.332;2023-04-01T05:02:51;94021.69;;;10.20;100.00
33155;BME280;19511;42.682;23.332;2023-04-01T05:05:16;94011.63;;;10.13;100.00
33155;BME280;19511;42.682;23.332;2023-04-01T05:07:42;94014.59;;;10.19;100.00
33155;BME280;19511;42.682;23.332;2023-04-01T05:10:08;93986.88;;;10.23;100.00
33155;BME280;19511;42.682;23.332;2023-04-01T05:12:33;94003.44;;;9.93;100.00
33155;BME280;19511;42.682;23.332;2023-04-01T05:15:07;93994.22;;;9.84;100.00
33155;BME280;19511;42.682;23.332;2023-04-01T05:17:33;93979.06;;;9.75;100.00
33155;BME280;19511;42.682;23.332;2023-04-01T05:20:02;93988.69;;;9.84;100.00
33155;BME280;19511;42.682;23.332;2023-04-01T05:22:28;93972.81;;;9.88;100.00
33155;BME280;19511;42.682;23.332;2023-04-01T05:24:53;93898.09;;;9.49;100.00
33155;BME280;19511;42.682;23.332;2023-04-01T05:27:20;93889.31;;;9.38;100.00
33155;BME280;19511;42.682;23.332;2023-04-01T05:29:45;93971.22;;;9.74;100.00
33155;BME280;19511;42.682;23.332;2023-04-01T05:32:10;93965.16;;;9.79;100.00
33155;BME280;19511;42.682;23.332;2023-04-01T05:34:36;93973.16;;;9.90;100.00
33155;BME280;19511;42.682;23.332;2023-04-01T05:37:01;93977.97;;;10.02;100.00
33155;BME280;19511;42.682;23.332;2023-04-01T05:39:27;93890.75;;;9.59;100.00
33155;BME280;19511;42.682;23.332;2023-04-01T05:41:52;93946.38;;;10.03;100.00
33155;BME280;19511;42.682;23.332;2023-04-01T05:44:18;93963.63;;;10.37;100.00
33155;BME280;19511;42.682;23.332;2023-04-01T05:46:43;93956.81;;;10.41;100.00
33155;BME280;19511;42.682;23.332;2023-04-01T05:49:17;93956.38;;;10.56;100.00
33155;BME280;19511;42.682;23.332;2023-04-01T05:51:50;93964.03;;;10.65;100.00
33155;BME280;19511;42.682;23.332;2023-04-01T05:54:17;93956.97;;;10.76;100.00
33155;BME280;19511;42.682;23.332;2023-04-01T05:56:42;93956.31;;;10.85;100.00
33155;BME280;19511;42.682;23.332;2023-04-01T05:59:10;93958.75;;;10.96;100.00
33155;BME280;19511;42.682;23.332;2023-04-01T06:01:39;93946.47;;;11.10;100.00
33155;BME280;19511;42.682;23.332;2023-04-01T06:04:05;93942.50;;;11.24;100.00
33155;BME280;19511;42.682;23.332;2023-04-01T06:06:37;93944.78;;;11.38;100.00
33155;BME280;19511;42.682;23.332;2023-04-01T06:09:13;93951.28;;;11.57;100.00
33155;BME280;19511;42.682;23.332;2023-04-01T06:22:30;93943.84;;;12.60;100.00
33155;BME280;19511;42.682;23.332;2023-04-01T06:30:33;93958.91;;;12.36;100.00
33155;BME280;19511;42.682;23.332;2023-04-01T06:44:30;93927.94;;;11.93;100.00
33155;BME280;19511;42.682;23.332;2023-04-01T06:47:20;93928.59;;;11.98;100.00
33155;BME280;19511;42.682;23.332;2023-04-01T06:50:05;93927.13;;;11.93;100.00
33155;BME280;19511;42.682;23.332;2023-04-01T06:57:55;93896.13;;;11.98;100.00
33155;BME280;19511;42.682;23.332;2023-04-01T07:00:30;93894.91;;;11.99;100.00
33155;BME280;19511;42.682;23.332;2023-04-01T07:05:57;93894.47;;;12.23;100.00
33155;BME280;19511;42.682;23.332;2023-04-01T07:08:29;93905.53;;;12.23;100.00
33155;BME280;19511;42.682;23.332;2023-04-01T07:11:03;93910.22;;;12.35;100.00
33155;BME280;19511;42.682;23.332;2023-04-01T07:13:34;93894.25;;;12.39;100.00
33155;BME280;19511;42.682;23.332;2023-04-01T07:18:56;93888.00;;;12.48;100.00
33155;BME280;19511;42.682;23.332;2023-04-01T07:21:48;93882.13;;;12.78;100.00
33155;BME280;19511;42.682;23.332;2023-04-01T07:24:25;93884.91;;;12.78;100.00
33155;BME280;19511;42.682;23.332;2023-04-01T07:26:55;93891.41;;;12.84;100.00
33155;BME280;19511;42.682;23.332;2023-04-01T07:29:21;93898.47;;;12.85;100.00
33155;BME280;19511;42.682;23.332;2023-04-01T07:45:41;93890.59;;;13.24;100.00
33155;BME280;19511;42.682;23.332;2023-04-01T07:56:30;93817.47;;;13.18;100.00
33155;BME280;19511;42.682;23.332;2023-04-01T08:02:02;93870.66;;;13.76;100.00
33155;BME280;19511;42.682;23.332;2023-04-01T08:07:20;93855.38;;;13.80;100.00
33155;BME280;19511;42.682;23.332;2023-04-01T08:13:05;93858.47;;;13.92;100.00
33155;BME280;19511;42.682;23.332;2023-04-01T08:21:01;93754.41;;;13.65;100.00
33155;BME280;19511;42.682;23.332;2023-04-01T08:23:48;93824.53;;;14.40;100.00
33155;BME280;19511;42.682;23.332;2023-04-01T08:26:41;93829.03;;;14.37;100.00
33155;BME280;19511;42.682;23.332;2023-04-01T08:29:22;93825.44;;;14.55;100.00
33155;BME280;19511;42.682;23.332;2023-04-01T08:32:09;93812.25;;;14.74;100.00
33155;BME280;19511;42.682;23.332;2023-04-01T08:34:40;93803.97;;;14.89;100.00
33155;BME280;19511;42.682;23.332;2023-04-01T08:37:12;93803.53;;;15.15;100.00
33155;BME280;19511;42.682;23.332;2023-04-01T08:39:57;93705.06;;;14.79;100.00
33155;BME280;19511;42.682;23.332;2023-04-01T08:56:40;93755.41;;;15.39;100.00
33155;BME280;19511;42.682;23.332;2023-04-01T09:11:27;93766.69;;;16.28;84.62
33155;BME280;19511;42.682;23.332;2023-04-01T09:27:54;93752.63;;;16.38;75.90
33155;BME280;19511;42.682;23.332;2023-04-01T09:34:00;93736.88;;;16.35;74.21
33155;BME280;19511;42.682;23.332;2023-04-01T09:39:34;93721.66;;;16.36;73.32
33155;BME280;19511;42.682;23.332;2023-04-01T09:44:37;93706.63;;;16.48;72.34
33155;BME280;19511;42.682;23.332;2023-04-01T09:47:29;93709.19;;;16.67;72.41
33155;BME280;19511;42.682;23.332;2023-04-01T10:26:23;93588.59;;;16.83;75.00
33155;BME280;19511;42.682;23.332;2023-04-01T10:51:04;93618.84;;;16.49;82.54
33155;BME280;19511;42.682;23.332;2023-04-01T10:53:41;93618.66;;;16.53;83.00
33155;BME280;19511;42.682;23.332;2023-04-01T11:33:26;93638.47;;;16.55;71.59
33155;BME280;19511;42.682;23.332;2023-04-01T11:36:05;93698.94;;;16.43;84.67
33155;BME280;19511;42.682;23.332;2023-04-01T11:44:16;93734.41;;;15.67;100.00
33155;BME280;19511;42.682;23.332;2023-04-01T11:46:56;93751.94;;;15.29;100.00
33155;BME280;19511;42.682;23.332;2023-04-01T12:06:22;93887.50;;;12.18;100.00
33155;BME280;19511;42.682;23.332;2023-04-01T12:15:50;93851.28;;;11.77;100.00
33155;BME280;19511;42.682;23.332;2023-04-01T12:18:36;93841.94;;;11.84;100.00
33155;BME280;19511;42.682;23.332;2023-04-01T12:21:22;93862.84;;;11.98;100.00
33155;BME280;19511;42.682;23.332;2023-04-01T12:26:41;93867.91;;;12.44;100.00
33155;BME280;19511;42.682;23.332;2023-04-01T12:45:55;93883.31;;;11.79;100.00
33155;BME280;19511;42.682;23.332;2023-04-01T13:03:44;93839.97;;;11.15;100.00
33155;BME280;19511;42.682;23.332;2023-04-01T13:09:08;93829.88;;;11.21;100.00
33155;BME280;19511;42.682;23.332;2023-04-01T13:12:14;93815.75;;;11.19;100.00
33155;BME280;19511;42.682;23.332;2023-04-01T13:20:22;93799.44;;;11.56;100.00
33155;BME280;19511;42.682;23.332;2023-04-01T13:26:43;93799.19;;;11.63;100.00
33155;BME280;19511;42.682;23.332;2023-04-01T13:39:43;93746.72;;;12.54;100.00
33155;BME280;19511;42.682;23.332;2023-04-01T13:45:23;93724.13;;;12.83;100.00
33155;BME280;19511;42.682;23.332;2023-04-01T14:10:43;93698.41;;;13.66;100.00
33155;BME280;19511;42.682;23.332;2023-04-01T14:13:31;93686.22;;;13.54;100.00
33155;BME280;19511;42.682;23.332;2023-04-01T14:16:22;93674.66;;;13.19;100.00
33155;BME280;19511;42.682;23.332;2023-04-01T14:19:22;93688.41;;;13.04;100.00
33155;BME280;19511;42.682;23.332;2023-04-01T14:34:18;93526.84;;;12.07;100.00
33155;BME280;19511;42.682;23.332;2023-04-01T14:50:50;93574.47;;;13.60;100.00
33155;BME280;19511;42.682;23.332;2023-04-01T14:53:28;93652.66;;;14.53;100.00
33155;BME280;19511;42.682;23.332;2023-04-01T14:56:01;93657.16;;;14.50;100.00
33155;BME280;19511;42.682;23.332;2023-04-01T14:58:50;93646.84;;;14.42;100.00
33155;BME280;19511;42.682;23.332;2023-04-01T15:01:46;93646.69;;;14.69;100.00
33155;BME280;19511;42.682;23.332;2023-04-01T15:12:41;93656.97;;;15.57;100.00
33155;BME280;19511;42.682;23.332;2023-04-01T15:26:27;93678.59;;;13.83;100.00
33155;BME280;19511;42.682;23.332;2023-04-01T15:31:50;93673.56;;;13.63;100.00
33155;BME280;19511;42.682;23.332;2023-04-01T15:37:30;93679.59;;;13.24;100.00
33155;BME280;19511;42.682;23.332;2023-04-01T15:50:46;93832.59;;;13.26;100.00
33155;BME280;19511;42.682;23.332;2023-04-01T15:53:49;93881.78;;;11.77;100.00
33155;BME280;19511;42.682;23.332;2023-04-01T15:56:40;93912.72;;;11.02;100.00
33155;BME280;19511;42.682;23.332;2023-04-01T15:59:28;93929.09;;;10.84;100.00
33155;BME280;19511;42.682;23.332;2023-04-01T16:02:27;93901.31;;;10.19;100.00
33155;BME280;19511;42.682;23.332;2023-04-01T16:05:04;93957.50;;;9.70;100.00
33155;BME280;19511;42.682;23.332;2023-04-01T16:10:24;93835.69;;;8.03;100.00
33155;BME280;19511;42.682;23.332;2023-04-01T16:15:46;93961.00;;;8.52;100.00
33155;BME280;19511;42.682;23.332;2023-04-01T16:23:43;93979.22;;;8.45;100.00
33155;BME280;19511;42.682;23.332;2023-04-01T16:26:18;93973.31;;;8.47;100.00
33155;BME280;19511;42.682;23.332;2023-04-01T16:28:55;93910.94;;;8.16;100.00
33155;BME280;19511;42.682;23.332;2023-04-01T16:39:43;94006.91;;;8.78;100.00
33155;BME280;19511;42.682;23.332;2023-04-01T16:45:51;93996.81;;;8.72;100.00
33155;BME280;19511;42.682;23.332;2023-04-01T16:48:25;94011.81;;;8.71;100.00
33155;BME280;19511;42.682;23.332;2023-04-01T16:51:11;93986.09;;;8.57;100.00
33155;BME280;19511;42.682;23.332;2023-04-01T16:53:53;94016.53;;;8.70;100.00
33155;BME280;19511;42.682;23.332;2023-04-01T17:11:12;94020.75;;;8.58;100.00
33155;BME280;19511;42.682;23.332;2023-04-01T17:17:16;94028.50;;;8.63;100.00
33155;BME280;19511;42.682;23.332;2023-04-01T17:22:48;94042.41;;;8.56;100.00
33155;BME280;19511;42.682;23.332;2023-04-01T17:30:30;94045.78;;;8.44;100.00
33155;BME280;19511;42.682;23.332;2023-04-01T17:33:12;94029.69;;;8.42;100.00
33155;BME280;19511;42.682;23.332;2023-04-01T17:35:58;94045.00;;;8.43;100.00
33155;BME280;19511;42.682;23.332;2023-04-01T17:58:02;94080.97;;;8.12;100.00
33155;BME280;19511;42.682;23.332;2023-04-01T18:11:46;94111.81;;;8.04;100.00
33155;BME280;19511;42.682;23.332;2023-04-01T18:20:17;94128.41;;;8.00;100.00
33155;BME280;19511;42.682;23.332;2023-04-01T18:25:43;94130.31;;;8.03;100.00
33155;BME280;19511;42.682;23.332;2023-04-01T18:45:26;94127.78;;;8.12;100.00
33155;BME280;19511;42.682;23.332;2023-04-01T18:48:16;94123.03;;;8.16;100.00
33155;BME280;19511;42.682;23.332;2023-04-01T18:56:05;94034.84;;;7.73;100.00
33155;BME280;19511;42.682;23.332;2023-04-01T18:58:58;94138.81;;;8.36;100.00
33155;BME280;19511;42.682;23.332;2023-04-01T19:01:37;94144.75;;;8.34;100.00
33155;BME280;19511;42.682;23.332;2023-04-01T19:06:58;94150.06;;;8.45;100.00
33155;BME280;19511;42.682;23.332;2023-04-01T19:09:58;94149.72;;;8.43;100.00
33155;BME280;19511;42.682;23.332;2023-04-01T19:17:41;94162.50;;;8.57;100.00
33155;BME280;19511;42.682;23.332;2023-04-01T19:21:14;94131.19;;;8.44;100.00
33155;BME280;19511;42.682;23.332;2023-04-01T19:26:04;94160.88;;;8.60;100.00
33155;BME280;19511;42.682;23.332;2023-04-01T19:34:31;94174.59;;;8.63;100.00
33155;BME280;19511;42.682;23.332;2023-04-01T19:37:11;94172.59;;;8.64;100.00
33155;BME280;19511;42.682;23.332;2023-04-01T19:40:40;94187.63;;;8.59;100.00
33155;BME280;19511;42.682;23.332;2023-04-01T19:43:01;94180.59;;;8.58;100.00
33155;BME280;19511;42.682;23.332;2023-04-01T19:49:01;94203.41;;;8.59;100.00
33155;BME280;19511;42.682;23.332;2023-04-01T19:51:37;94183.75;;;8.57;100.00
33155;BME280;19511;42.682;23.332;2023-04-01T20:02:38;94191.78;;;8.47;100.00
33155;BME280;19511;42.682;23.332;2023-04-01T20:05:25;94192.50;;;8.52;100.00
33155;BME280;19511;42.682;23.332;2023-04-01T20:08:04;94194.06;;;8.53;100.00
33155;BME280;19511;42.682;23.332;2023-04-01T20:10:40;94196.81;;;8.53;100.00
33155;BME280;19511;42.682;23.332;2023-04-01T20:13:41;94203.53;;;8.52;100.00
33155;BME280;19511;42.682;23.332;2023-04-01T20:16:12;94159.44;;;8.28;100.00
33155;BME280;19511;42.682;23.332;2023-04-01T20:18:54;94197.97;;;8.55;100.00
33155;BME280;19511;42.682;23.332;2023-04-01T20:21:42;94212.06;;;8.61;100.00
33155;BME280;19511;42.682;23.332;2023-04-01T20:24:24;94114.66;;;8.00;100.00
33155;BME280;19511;42.682;23.332;2023-04-01T20:29:47;94209.63;;;8.63;100.00
33155;BME280;19511;42.682;23.332;2023-04-01T20:41:16;94212.50;;;8.56;100.00
33155;BME280;19511;42.682;23.332;2023-04-01T20:52:17;94143.84;;;8.17;100.00
33155;BME280;19511;42.682;23.332;2023-04-01T21:16:29;94231.84;;;8.76;100.00
33155;BME280;19511;42.682;23.332;2023-04-01T21:30:23;94232.28;;;8.74;100.00
33155;BME280;19511;42.682;23.332;2023-04-01T21:33:01;94231.47;;;8.77;100.00
33155;BME280;19511;42.682;23.332;2023-04-01T21:50:39;94237.78;;;8.74;100.00
33155;BME280;19511;42.682;23.332;2023-04-01T21:53:25;94224.28;;;8.60;100.00
33155;BME280;19511;42.682;23.332;2023-04-01T22:05:20;94245.94;;;8.58;100.00
33155;BME280;19511;42.682;23.332;2023-04-01T22:08:26;94214.28;;;8.42;100.00
33155;BME280;19511;42.682;23.332;2023-04-01T22:13:46;94239.72;;;8.54;100.00
33155;BME280;19511;42.682;23.332;2023-04-01T22:22:07;94198.44;;;8.23;100.00
33155;BME280;19511;42.682;23.332;2023-04-01T22:27:48;94227.63;;;8.47;100.00
33155;BME280;19511;42.682;23.332;2023-04-01T22:30:27;94219.19;;;8.31;100.00
33155;BME280;19511;42.682;23.332;2023-04-01T22:33:16;94225.41;;;8.35;100.00
33155;BME280;19511;42.682;23.332;2023-04-01T22:45:02;94228.53;;;8.37;100.00
33155;BME280;19511;42.682;23.332;2023-04-01T22:50:38;94243.72;;;8.49;100.00
33155;BME280;19511;42.682;23.332;2023-04-01T22:56:15;94243.03;;;8.41;100.00
33155;BME280;19511;42.682;23.332;2023-04-01T22:58:50;94259.00;;;8.54;100.00
33155;BME280;19511;42.682;23.332;2023-04-01T23:01:24;94257.81;;;8.55;100.00
33155;BME280;19511;42.682;23.332;2023-04-01T23:03:55;94188.47;;;8.09;100.00
33155;BME280;19511;42.682;23.332;2023-04-01T23:06:35;94260.03;;;8.63;100.00
33155;BME280;19511;42.682;23.332;2023-04-01T23:09:12;94257.63;;;8.65;100.00
33155;BME280;19511;42.682;23.332;2023-04-01T23:11:48;94258.81;;;8.64;100.00
33155;BME280;19511;42.682;23.332;2023-04-01T23:17:01;94256.06;;;8.64;100.00
33155;BME280;19511;42.682;23.332;2023-04-01T23:19:40;94259.63;;;8.65;100.00
33155;BME280;19511;42.682;23.332;2023-04-01T23:24:58;94252.06;;;8.69;100.00
33155;BME280;19511;42.682;23.332;2023-04-01T23:33:21;94266.56;;;8.73;100.00
33155;BME280;19511;42.682;23.332;2023-04-01T23:38:17;94259.25;;;8.63;100.00
33155;BME280;19511;42.682;23.332;2023-04-01T23:40:43;94270.13;;;8.74;100.00
33155;BME280;19511;42.682;23.332;2023-04-01T23:43:26;94264.75;;;8.63;100.00
33155;BME280;19511;42.682;23.332;2023-04-01T23:46:01;94263.28;;;8.58;100.00
33155;BME280;19511;42.682;23.332;2023-04-01T23:48:47;94271.06;;;8.63;100.00
33155;BME280;19511;42.682;23.332;2023-04-01T23:51:25;94262.38;;;8.65;100.00
33155;BME280;19511;42.682;23.332;2023-04-01T23:54:14;94267.84;;;8.69;100.00
33155;BME280;19511;42.682;23.332;2023-04-01T23:56:45;94262.25;;;8.72;100.00
33155;BME280;19511;42.682;23.332;2023-04-01T23:59:38;94264.53;;;8.77;100.00
